<?xml version="1.0" encoding="UTF-8" standalone="no" ?>
<gpx xmlns="http://www.topografix.com/GPX/1/1" xmlns:xsi="http://www.w3.org/2001/XMLSchema-instance" xsi:schemaLocation="http://www.topografix.com/GPX/1/1 http://www.topografix.com/GPX/1/1/gpx.xsd" version="1.1" creator="VisuGPX - https://www.visugpx.com">
  <metadata>
    <name>Ennery Livilliers</name>
  </metadata>
  <trk>
    <name><![CDATA[13668373-ROV Saint-Ouen-l'aumône  20220925]]></name>
    <trkseg>
      <trkpt lat="49.07694" lon="2.10786">
        <ele>98</ele>
      </trkpt>
      <trkpt lat="49.07675" lon="2.108">
        <ele>97.9</ele>
      </trkpt>
      <trkpt lat="49.07664" lon="2.10797">
        <ele>97.6</ele>
      </trkpt>
      <trkpt lat="49.07654" lon="2.10801">
        <ele>97.4</ele>
      </trkpt>
      <trkpt lat="49.07634" lon="2.10818">
        <ele>96.5</ele>
      </trkpt>
      <trkpt lat="49.07626" lon="2.10834">
        <ele>96</ele>
      </trkpt>
      <trkpt lat="49.0762" lon="2.10813">
        <ele>96.2</ele>
      </trkpt>
      <trkpt lat="49.0761" lon="2.10812">
        <ele>96</ele>
      </trkpt>
      <trkpt lat="49.07594" lon="2.10744">
        <ele>95.4</ele>
      </trkpt>
      <trkpt lat="49.07586" lon="2.10747">
        <ele>95.1</ele>
      </trkpt>
      <trkpt lat="49.07568" lon="2.10706">
        <ele>94.8</ele>
      </trkpt>
      <trkpt lat="49.07587" lon="2.10685">
        <ele>95.4</ele>
      </trkpt>
      <trkpt lat="49.07625" lon="2.10656">
        <ele>96</ele>
      </trkpt>
      <trkpt lat="49.07653" lon="2.10631">
        <ele>96.6</ele>
      </trkpt>
      <trkpt lat="49.07676" lon="2.106">
        <ele>97.3</ele>
      </trkpt>
      <trkpt lat="49.07677" lon="2.10597">
        <ele>97.4</ele>
      </trkpt>
      <trkpt lat="49.07642" lon="2.10545">
        <ele>96.2</ele>
      </trkpt>
      <trkpt lat="49.07697" lon="2.10468">
        <ele>96.8</ele>
      </trkpt>
      <trkpt lat="49.07639" lon="2.10547">
        <ele>96</ele>
      </trkpt>
      <trkpt lat="49.07663" lon="2.10581">
        <ele>96.9</ele>
      </trkpt>
      <trkpt lat="49.07674" lon="2.10597">
        <ele>97.3</ele>
      </trkpt>
      <trkpt lat="49.07651" lon="2.10628">
        <ele>96.7</ele>
      </trkpt>
      <trkpt lat="49.07624" lon="2.10654">
        <ele>96</ele>
      </trkpt>
      <trkpt lat="49.07583" lon="2.10684">
        <ele>95.4</ele>
      </trkpt>
      <trkpt lat="49.07513" lon="2.10765">
        <ele>93.2</ele>
      </trkpt>
      <trkpt lat="49.07516" lon="2.10805">
        <ele>93</ele>
      </trkpt>
      <trkpt lat="49.07505" lon="2.10888">
        <ele>92.2</ele>
      </trkpt>
      <trkpt lat="49.07488" lon="2.10884">
        <ele>92.4</ele>
      </trkpt>
      <trkpt lat="49.07343" lon="2.1093">
        <ele>90.5</ele>
      </trkpt>
      <trkpt lat="49.07242" lon="2.10984">
        <ele>86.9</ele>
      </trkpt>
      <trkpt lat="49.07154" lon="2.10889">
        <ele>81.5</ele>
      </trkpt>
      <trkpt lat="49.07066" lon="2.10852">
        <ele>78.4</ele>
      </trkpt>
      <trkpt lat="49.06921" lon="2.10816">
        <ele>76.1</ele>
        <time>2022-09-24T13:48:30Z</time>
      </trkpt>
      <trkpt lat="49.06936" lon="2.10788">
        <ele>74</ele>
        <time>2022-09-24T13:49:03Z</time>
      </trkpt>
      <trkpt lat="49.06941" lon="2.10774">
        <ele>74</ele>
        <time>2022-09-24T13:49:17Z</time>
      </trkpt>
      <trkpt lat="49.06948" lon="2.10749">
        <ele>77.9</ele>
        <time>2022-09-24T13:49:39Z</time>
      </trkpt>
      <trkpt lat="49.06962" lon="2.10713">
        <ele>78.2</ele>
      </trkpt>
      <trkpt lat="49.06982" lon="2.10668">
        <ele>79.4</ele>
      </trkpt>
      <trkpt lat="49.07016" lon="2.10629">
        <ele>80.6</ele>
        <time>2022-09-24T13:52:47Z</time>
      </trkpt>
      <trkpt lat="49.07062" lon="2.10573">
        <ele>83.2</ele>
      </trkpt>
      <trkpt lat="49.07027" lon="2.10508">
        <ele>81</ele>
      </trkpt>
      <trkpt lat="49.07045" lon="2.10484">
        <ele>81.6</ele>
      </trkpt>
      <trkpt lat="49.07063" lon="2.10428">
        <ele>81.8</ele>
        <time>2022-09-24T13:57:35Z</time>
      </trkpt>
      <trkpt lat="49.0704" lon="2.10413">
        <ele>80.4</ele>
      </trkpt>
      <trkpt lat="49.07003" lon="2.10366">
        <ele>78.2</ele>
      </trkpt>
      <trkpt lat="49.07011" lon="2.10347">
        <ele>78.6</ele>
      </trkpt>
      <trkpt lat="49.07004" lon="2.10333">
        <ele>78.1</ele>
      </trkpt>
      <trkpt lat="49.07042" lon="2.10275">
        <ele>79.5</ele>
        <time>2022-09-24T14:01:17Z</time>
      </trkpt>
      <trkpt lat="49.07005" lon="2.102">
        <ele>75.4</ele>
      </trkpt>
      <trkpt lat="49.06977" lon="2.10116">
        <ele>67</ele>
        <time>2022-09-24T14:04:50Z</time>
      </trkpt>
      <trkpt lat="49.06978" lon="2.10087">
        <ele>64</ele>
        <time>2022-09-24T14:05:15Z</time>
      </trkpt>
      <trkpt lat="49.07045" lon="2.0991">
        <ele>53</ele>
      </trkpt>
      <trkpt lat="49.07047" lon="2.09892">
        <ele>61</ele>
        <time>2022-09-24T14:08:29Z</time>
      </trkpt>
      <trkpt lat="49.07019" lon="2.09882">
        <ele>59</ele>
        <time>2022-09-24T14:09:07Z</time>
      </trkpt>
      <trkpt lat="49.0705" lon="2.09846">
        <ele>61</ele>
        <time>2022-09-24T14:09:59Z</time>
      </trkpt>
      <trkpt lat="49.07098" lon="2.0982">
        <ele>51.3</ele>
        <time>2022-09-24T14:11:12Z</time>
      </trkpt>
      <trkpt lat="49.07126" lon="2.09729">
        <ele>51.1</ele>
        <time>2022-09-24T14:13:02Z</time>
      </trkpt>
      <trkpt lat="49.07163" lon="2.09642">
        <ele>52.1</ele>
      </trkpt>
      <trkpt lat="49.07204" lon="2.09601">
        <ele>53.4</ele>
        <time>2022-09-24T14:14:45Z</time>
      </trkpt>
      <trkpt lat="49.07257" lon="2.09518">
        <ele>70</ele>
        <time>2022-09-24T14:16:50Z</time>
      </trkpt>
      <trkpt lat="49.07279" lon="2.09422">
        <ele>54.9</ele>
        <time>2022-09-24T14:18:04Z</time>
      </trkpt>
      <trkpt lat="49.07266" lon="2.09367">
        <ele>56.6</ele>
        <time>2022-09-24T14:19:00Z</time>
      </trkpt>
      <trkpt lat="49.07301" lon="2.09282">
        <ele>58.3</ele>
      </trkpt>
      <trkpt lat="49.0734" lon="2.09242">
        <ele>59.4</ele>
        <time>2022-09-24T14:21:54Z</time>
      </trkpt>
      <trkpt lat="49.07341" lon="2.09175">
        <ele>60.3</ele>
      </trkpt>
      <trkpt lat="49.07374" lon="2.09135">
        <ele>59.2</ele>
        <time>2022-09-24T14:23:05Z</time>
      </trkpt>
      <trkpt lat="49.07397" lon="2.09132">
        <ele>59.5</ele>
      </trkpt>
      <trkpt lat="49.07405" lon="2.09103">
        <ele>60.7</ele>
        <time>2022-09-24T14:24:17Z</time>
      </trkpt>
      <trkpt lat="49.07421" lon="2.09088">
        <ele>61</ele>
      </trkpt>
      <trkpt lat="49.07427" lon="2.09081">
        <ele>61</ele>
      </trkpt>
      <trkpt lat="49.07453" lon="2.09041">
        <ele>60.1</ele>
      </trkpt>
      <trkpt lat="49.07471" lon="2.09021">
        <ele>59.8</ele>
      </trkpt>
      <trkpt lat="49.07485" lon="2.08968">
        <ele>66</ele>
        <time>2022-09-24T14:26:58Z</time>
      </trkpt>
      <trkpt lat="49.07556" lon="2.08857">
        <ele>62.7</ele>
      </trkpt>
      <trkpt lat="49.07581" lon="2.08837">
        <ele>62.2</ele>
        <time>2022-09-24T14:30:22Z</time>
      </trkpt>
      <trkpt lat="49.07666" lon="2.08802">
        <ele>63</ele>
      </trkpt>
      <trkpt lat="49.07732" lon="2.0877">
        <ele>63</ele>
      </trkpt>
      <trkpt lat="49.07755" lon="2.08712">
        <ele>63.7</ele>
      </trkpt>
      <trkpt lat="49.07794" lon="2.0866">
        <ele>64.1</ele>
      </trkpt>
      <trkpt lat="49.07832" lon="2.08624">
        <ele>64.5</ele>
      </trkpt>
      <trkpt lat="49.07868" lon="2.08617">
        <ele>64.2</ele>
        <time>2022-09-24T14:36:45Z</time>
      </trkpt>
      <trkpt lat="49.07871" lon="2.08631">
        <ele>64.7</ele>
      </trkpt>
      <trkpt lat="49.07898" lon="2.08637">
        <ele>64.9</ele>
      </trkpt>
      <trkpt lat="49.07938" lon="2.08663">
        <ele>66.7</ele>
      </trkpt>
      <trkpt lat="49.08006" lon="2.08672">
        <ele>66.5</ele>
      </trkpt>
      <trkpt lat="49.08029" lon="2.08667">
        <ele>66</ele>
      </trkpt>
      <trkpt lat="49.08066" lon="2.08681">
        <ele>67</ele>
      </trkpt>
      <trkpt lat="49.08099" lon="2.08669">
        <ele>66.2</ele>
      </trkpt>
      <trkpt lat="49.08172" lon="2.08668">
        <ele>68.3</ele>
        <time>2022-09-24T14:42:25Z</time>
      </trkpt>
      <trkpt lat="49.08237" lon="2.08616">
        <ele>69.2</ele>
        <time>2022-09-24T14:47:38Z</time>
      </trkpt>
      <trkpt lat="49.08388" lon="2.08608">
        <ele>76.9</ele>
      </trkpt>
      <trkpt lat="49.08423" lon="2.08622">
        <ele>77.6</ele>
      </trkpt>
      <trkpt lat="49.08549" lon="2.08621">
        <ele>80.8</ele>
        <time>2022-09-24T14:53:34Z</time>
      </trkpt>
      <trkpt lat="49.08595" lon="2.08636">
        <ele>81.4</ele>
      </trkpt>
      <trkpt lat="49.0869" lon="2.0868">
        <ele>83</ele>
      </trkpt>
      <trkpt lat="49.08736" lon="2.08725">
        <ele>83.5</ele>
      </trkpt>
      <trkpt lat="49.08779" lon="2.08785">
        <ele>85</ele>
        <time>2022-09-24T14:58:12Z</time>
      </trkpt>
      <trkpt lat="49.0884" lon="2.08884">
        <ele>84.8</ele>
      </trkpt>
      <trkpt lat="49.08895" lon="2.08957">
        <ele>85.5</ele>
        <time>2022-09-24T15:01:57Z</time>
      </trkpt>
      <trkpt lat="49.08977" lon="2.08988">
        <ele>87.1</ele>
      </trkpt>
      <trkpt lat="49.09065" lon="2.09013">
        <ele>87.8</ele>
        <time>2022-09-24T15:06:03Z</time>
      </trkpt>
      <trkpt lat="49.09002" lon="2.08775">
        <ele>84.9</ele>
      </trkpt>
      <trkpt lat="49.08951" lon="2.08644">
        <ele>79.5</ele>
      </trkpt>
      <trkpt lat="49.08855" lon="2.08534">
        <ele>70.4</ele>
        <time>2022-09-24T15:13:44Z</time>
      </trkpt>
      <trkpt lat="49.09029" lon="2.08519">
        <ele>70.7</ele>
      </trkpt>
      <trkpt lat="49.09039" lon="2.08551">
        <ele>72.2</ele>
        <time>2022-09-24T15:18:09Z</time>
      </trkpt>
      <trkpt lat="49.09115" lon="2.08483">
        <ele>71.6</ele>
      </trkpt>
      <trkpt lat="49.09221" lon="2.08339">
        <ele>71.2</ele>
      </trkpt>
      <trkpt lat="49.09246" lon="2.0833">
        <ele>71.9</ele>
      </trkpt>
      <trkpt lat="49.09209" lon="2.08209">
        <ele>71.5</ele>
        <time>2022-09-24T15:23:06Z</time>
      </trkpt>
      <trkpt lat="49.09273" lon="2.08142">
        <ele>72</ele>
        <time>2022-09-24T15:24:48Z</time>
      </trkpt>
      <trkpt lat="49.09317" lon="2.08095">
        <ele>72.4</ele>
      </trkpt>
      <trkpt lat="49.09354" lon="2.08013">
        <ele>72.4</ele>
      </trkpt>
      <trkpt lat="49.09372" lon="2.08004">
        <ele>72.5</ele>
      </trkpt>
      <trkpt lat="49.09416" lon="2.07892">
        <ele>73</ele>
      </trkpt>
      <trkpt lat="49.09423" lon="2.07821">
        <ele>73.3</ele>
      </trkpt>
      <trkpt lat="49.09467" lon="2.07707">
        <ele>73.4</ele>
      </trkpt>
      <trkpt lat="49.0957" lon="2.07564">
        <ele>73.8</ele>
        <time>2022-09-24T15:36:49Z</time>
      </trkpt>
      <trkpt lat="49.09622" lon="2.07453">
        <ele>74.2</ele>
      </trkpt>
      <trkpt lat="49.09707" lon="2.073">
        <ele>74.4</ele>
        <time>2022-09-24T15:41:43Z</time>
      </trkpt>
      <trkpt lat="49.09753" lon="2.07283">
        <ele>75</ele>
      </trkpt>
      <trkpt lat="49.09818" lon="2.07292">
        <ele>75.3</ele>
      </trkpt>
      <trkpt lat="49.09842" lon="2.07305">
        <ele>75.3</ele>
      </trkpt>
      <trkpt lat="49.0992" lon="2.07231">
        <ele>76</ele>
      </trkpt>
      <trkpt lat="49.09926" lon="2.07182">
        <ele>75</ele>
        <time>2022-09-24T15:46:43Z</time>
      </trkpt>
      <trkpt lat="49.10066" lon="2.07268">
        <ele>82</ele>
        <time>2022-09-24T15:50:04Z</time>
      </trkpt>
      <trkpt lat="49.10225" lon="2.07361">
        <ele>78</ele>
        <time>2022-09-24T15:53:32Z</time>
      </trkpt>
      <trkpt lat="49.10199" lon="2.07547">
        <ele>88</ele>
      </trkpt>
      <trkpt lat="49.09958" lon="2.08178">
        <ele>85.8</ele>
        <time>2022-09-24T16:06:12Z</time>
      </trkpt>
      <trkpt lat="49.09934" lon="2.08315">
        <ele>84.8</ele>
      </trkpt>
      <trkpt lat="49.09746" lon="2.08755">
        <ele>82.2</ele>
      </trkpt>
      <trkpt lat="49.09652" lon="2.09081">
        <ele>88.9</ele>
      </trkpt>
      <trkpt lat="49.09589" lon="2.0918">
        <ele>92.3</ele>
        <time>2022-09-24T16:24:35Z</time>
      </trkpt>
      <trkpt lat="49.09516" lon="2.09491">
        <ele>103.4</ele>
        <time>2022-09-24T16:29:17Z</time>
      </trkpt>
      <trkpt lat="49.0949" lon="2.09547">
        <ele>104.9</ele>
      </trkpt>
      <trkpt lat="49.0949" lon="2.09736">
        <ele>108.8</ele>
      </trkpt>
      <trkpt lat="49.0952" lon="2.09785">
        <ele>109</ele>
        <time>2022-09-24T16:32:35Z</time>
      </trkpt>
      <trkpt lat="49.09336" lon="2.09882">
        <ele>106</ele>
      </trkpt>
      <trkpt lat="49.09177" lon="2.09918">
        <ele>105</ele>
      </trkpt>
      <trkpt lat="49.09174" lon="2.09903">
        <ele>105</ele>
      </trkpt>
      <trkpt lat="49.0894" lon="2.10059">
        <ele>101</ele>
        <time>2022-09-24T16:45:33Z</time>
      </trkpt>
      <trkpt lat="49.09264" lon="2.11293">
        <ele>97.3</ele>
        <time>2022-09-24T17:04:12Z</time>
      </trkpt>
      <trkpt lat="49.09076" lon="2.11777">
        <ele>100</ele>
      </trkpt>
      <trkpt lat="49.08899" lon="2.1218">
        <ele>97.2</ele>
        <time>2022-09-24T17:19:16Z</time>
      </trkpt>
      <trkpt lat="49.08732" lon="2.11998">
        <ele>95</ele>
      </trkpt>
      <trkpt lat="49.08625" lon="2.11787">
        <ele>96.7</ele>
      </trkpt>
      <trkpt lat="49.08475" lon="2.11534">
        <ele>97.1</ele>
        <time>2022-09-24T17:31:46Z</time>
      </trkpt>
      <trkpt lat="49.08085" lon="2.11341">
        <ele>94</ele>
        <time>2022-09-24T17:41:22Z</time>
      </trkpt>
      <trkpt lat="49.07959" lon="2.11311">
        <ele>95.8</ele>
      </trkpt>
      <trkpt lat="49.07841" lon="2.1131">
        <ele>96</ele>
      </trkpt>
      <trkpt lat="49.07784" lon="2.11134">
        <ele>98.1</ele>
      </trkpt>
      <trkpt lat="49.07738" lon="2.10989">
        <ele>98.3</ele>
      </trkpt>
      <trkpt lat="49.07738" lon="2.10972">
        <ele>98</ele>
      </trkpt>
      <trkpt lat="49.07753" lon="2.10759">
        <ele>98</ele>
      </trkpt>
      <trkpt lat="49.07751" lon="2.10746">
        <ele>98</ele>
      </trkpt>
      <trkpt lat="49.07696" lon="2.10785">
        <ele>98</ele>
        <time>2022-09-24T17:49:52Z</time>
      </trkpt>
    </trkseg>
  </trk>
</gpx>